createdAt,value
2016-09-01T00:00:44.520Z,0
2016-09-01T00:01:45.696Z,0
2016-09-01T00:02:43.090Z,0
2016-09-01T00:03:43.713Z,0
2016-09-01T00:04:43.719Z,0
2016-09-01T00:05:43.738Z,0
2016-09-01T00:06:44.445Z,0
2016-09-01T00:07:43.032Z,0
2016-09-01T00:08:44.467Z,0
2016-09-01T00:09:45.475Z,0
2016-09-01T00:10:43.056Z,0
2016-09-01T00:11:44.639Z,0
2016-09-01T00:12:44.492Z,0
2016-09-01T00:13:43.083Z,0
2016-09-01T00:14:44.562Z,0
2016-09-01T00:15:45.219Z,0
2016-09-01T00:16:44.525Z,0
2016-09-01T00:17:44.589Z,0
2016-09-01T00:18:43.124Z,0
2016-09-01T00:19:44.546Z,0
2016-09-01T00:20:44.374Z,0
2016-09-01T00:21:43.850Z,0
2016-09-01T00:22:43.869Z,0
2016-09-01T00:23:44.574Z,0
2016-09-01T00:24:45.712Z,0
2016-09-01T00:25:45.314Z,0
2016-09-01T00:26:45.319Z,0
2016-09-01T00:27:43.901Z,0
2016-09-01T00:28:43.222Z,0
2016-09-01T00:29:45.331Z,0
2016-09-01T00:30:44.637Z,0
2016-09-01T00:31:43.238Z,0
2016-09-01T00:32:43.234Z,0
2016-09-01T00:33:43.945Z,0
2016-09-01T00:34:42.596Z,0
2016-09-01T00:35:45.848Z,0
2016-09-01T00:36:43.273Z,0
2016-09-01T00:37:44.690Z,0
2016-09-01T00:38:43.987Z,0
2016-09-01T00:39:45.411Z,0
2016-09-01T00:40:44.711Z,0
2016-09-01T00:41:44.013Z,0
2016-09-01T00:42:44.324Z,0
2016-09-01T00:43:43.322Z,0
2016-09-01T00:44:43.482Z,0
2016-09-01T00:45:44.756Z,0
2016-09-01T00:46:45.524Z,0
2016-09-01T00:47:44.821Z,0
2016-09-01T00:48:44.774Z,0
2016-09-01T00:49:44.083Z,0
2016-09-01T00:50:43.378Z,0
2016-09-01T00:51:45.507Z,0
2016-09-01T00:52:44.151Z,0
2016-09-01T00:53:45.577Z,0
2016-09-01T00:54:42.756Z,0
2016-09-01T00:55:44.829Z,0
2016-09-01T00:56:44.842Z,0
2016-09-01T00:57:45.416Z,0
2016-09-01T00:58:44.145Z,0
2016-09-01T00:59:42.745Z,0
2016-09-01T01:00:44.870Z,0
2016-09-01T01:01:44.881Z,0
2016-09-01T01:02:43.478Z,0
2016-09-01T01:03:44.893Z,0
2016-09-01T01:04:44.904Z,0
2016-09-01T01:05:44.203Z,0
2016-09-01T01:06:44.919Z,0
2016-09-01T01:07:43.508Z,0
2016-09-01T01:08:46.293Z,0
2016-09-01T01:09:44.234Z,0
2016-09-01T01:10:46.239Z,0
2016-09-01T01:11:44.246Z,0
2016-09-01T01:12:44.959Z,0
2016-09-01T01:13:43.553Z,0
2016-09-01T01:14:45.691Z,0
2016-09-01T01:15:44.281Z,0
2016-09-01T01:16:43.581Z,0
2016-09-01T01:17:44.299Z,0
2016-09-01T01:18:45.009Z,0
2016-09-01T01:19:45.450Z,0
2016-09-01T01:20:45.738Z,0
2016-09-01T01:21:45.029Z,0
2016-09-01T01:22:43.629Z,0
2016-09-01T01:23:43.632Z,0
2016-09-01T01:24:45.055Z,0
2016-09-01T01:25:45.065Z,0
2016-09-01T01:26:45.779Z,0
2016-09-01T01:27:44.372Z,0
2016-09-01T01:28:45.086Z,0
2016-09-01T01:29:44.384Z,0
2016-09-01T01:30:44.952Z,0
2016-09-01T01:31:43.696Z,0
2016-09-01T01:32:46.995Z,0
2016-09-01T01:33:43.729Z,0
2016-09-01T01:34:45.874Z,0
2016-09-01T01:35:43.787Z,0
2016-09-01T01:36:45.163Z,0
2016-09-01T01:37:43.847Z,0
2016-09-01T01:38:43.043Z,0
2016-09-01T01:39:45.187Z,0
2016-09-01T01:40:44.476Z,0
2016-09-01T01:41:45.283Z,0
2016-09-01T01:42:45.197Z,0
2016-09-01T01:43:44.493Z,0
2016-09-01T01:44:44.514Z,0
2016-09-01T01:45:44.514Z,0
2016-09-01T01:46:45.932Z,0
2016-09-01T01:47:44.532Z,0
2016-09-01T01:48:45.246Z,0
2016-09-01T01:49:43.849Z,0
2016-09-01T01:50:44.604Z,0
2016-09-01T01:51:45.267Z,0
2016-09-01T01:52:46.136Z,0
2016-09-01T01:53:43.920Z,0
2016-09-01T01:54:46.092Z,0
2016-09-01T01:55:44.641Z,0
2016-09-01T01:56:45.319Z,0
2016-09-01T01:57:44.606Z,0
2016-09-01T01:58:43.203Z,0
2016-09-01T01:59:45.331Z,0
2016-09-01T02:00:44.636Z,0
2016-09-01T02:01:44.657Z,0
2016-09-01T02:02:46.057Z,0
2016-09-01T02:03:44.707Z,0
2016-09-01T02:04:44.661Z,0
2016-09-01T02:05:44.666Z,0
2016-09-01T02:06:43.996Z,0
2016-09-01T02:07:44.684Z,0
2016-09-01T02:08:43.279Z,0
2016-09-01T02:09:44.707Z,0
2016-09-01T02:10:44.002Z,0
2016-09-01T02:11:46.130Z,0
2016-09-01T02:12:44.733Z,0
2016-09-01T02:13:45.437Z,0
2016-09-01T02:14:44.747Z,0
2016-09-01T02:15:46.162Z,0
2016-09-01T02:16:46.260Z,0
2016-09-01T02:17:46.176Z,0
2016-09-01T02:18:45.477Z,0
2016-09-01T02:19:45.489Z,0
2016-09-01T02:20:44.085Z,0
2016-09-01T02:21:44.799Z,0
2016-09-01T02:22:45.509Z,0
2016-09-01T02:23:44.116Z,0
2016-09-01T02:24:45.521Z,0
2016-09-01T02:25:44.826Z,0
2016-09-01T02:26:45.540Z,0
2016-09-01T02:27:47.980Z,0
2016-09-01T02:28:45.557Z,0
2016-09-01T02:29:44.856Z,0
2016-09-01T02:30:44.865Z,0
2016-09-01T02:31:44.875Z,0
2016-09-01T02:32:46.292Z,0
2016-09-01T02:33:43.476Z,0
2016-09-01T02:34:44.900Z,0
2016-09-01T02:35:44.902Z,0
2016-09-01T02:36:44.206Z,0
2016-09-01T02:37:45.071Z,0
2016-09-01T02:38:46.074Z,0
2016-09-01T02:39:44.948Z,0
2016-09-01T02:40:44.944Z,0
2016-09-01T02:41:44.950Z,0
2016-09-01T02:42:44.259Z,0
2016-09-01T02:43:44.961Z,0
2016-09-01T02:44:44.976Z,0
2016-09-01T02:45:46.412Z,0
2016-09-01T02:46:44.277Z,0
2016-09-01T02:47:45.047Z,0
2016-09-01T02:48:45.712Z,0
2016-09-01T02:49:45.422Z,0
2016-09-01T02:50:44.315Z,0
2016-09-01T02:51:46.901Z,0
2016-09-01T02:52:45.742Z,0
2016-09-01T02:53:45.760Z,0
2016-09-01T02:54:46.565Z,0
2016-09-01T02:55:45.211Z,0
2016-09-01T02:56:45.075Z,0
2016-09-01T02:57:45.786Z,0
2016-09-01T02:58:45.850Z,0
2016-09-01T02:59:46.501Z,0
2016-09-01T03:00:45.909Z,0
2016-09-01T03:01:45.109Z,0
2016-09-01T03:02:44.420Z,0
2016-09-01T03:03:46.555Z,0
2016-09-01T03:04:45.673Z,0
2016-09-01T03:05:43.722Z,0
2016-09-01T03:06:45.143Z,0
2016-09-01T03:07:44.445Z,0
2016-09-01T03:08:46.568Z,0
2016-09-01T03:09:44.461Z,0
2016-09-01T03:10:45.187Z,0
2016-09-01T03:11:45.945Z,0
2016-09-01T03:12:45.191Z,0
2016-09-01T03:13:45.197Z,0
2016-09-01T03:14:45.349Z,0
2016-09-01T03:15:45.100Z,0
2016-09-01T03:16:46.648Z,0
2016-09-01T03:17:44.548Z,0
2016-09-01T03:18:45.988Z,0
2016-09-01T03:19:45.952Z,0
2016-09-01T03:20:45.974Z,0
2016-09-01T03:21:45.987Z,0
2016-09-01T03:22:45.267Z,0
2016-09-01T03:23:45.982Z,0
2016-09-01T03:24:47.113Z,0
2016-09-01T03:25:44.588Z,0
2016-09-01T03:26:45.541Z,0
2016-09-01T03:27:46.432Z,0
2016-09-01T03:28:46.870Z,0
2016-09-01T03:29:46.038Z,0
2016-09-01T03:30:46.039Z,0
2016-09-01T03:31:45.336Z,0
2016-09-01T03:32:46.770Z,0
2016-09-01T03:33:45.362Z,0
2016-09-01T03:34:45.356Z,0
2016-09-01T03:35:47.534Z,0
2016-09-01T03:36:45.382Z,0
2016-09-01T03:37:44.873Z,0
2016-09-01T03:38:44.785Z,0
2016-09-01T03:39:46.206Z,0
2016-09-01T03:40:45.453Z,0
2016-09-01T03:41:46.142Z,0
2016-09-01T03:42:45.422Z,0
2016-09-01T03:43:45.426Z,0
2016-09-01T03:44:44.732Z,0
2016-09-01T03:45:46.874Z,0
2016-09-01T03:46:45.903Z,0
2016-09-01T03:47:44.755Z,0
2016-09-01T03:48:45.079Z,0
2016-09-01T03:49:46.891Z,0
2016-09-01T03:50:46.392Z,0
2016-09-01T03:51:44.833Z,0
2016-09-01T03:52:46.215Z,0
2016-09-01T03:53:46.923Z,0
2016-09-01T03:54:45.514Z,0
2016-09-01T03:55:45.622Z,0
2016-09-01T03:56:46.940Z,0
2016-09-01T03:57:44.531Z,0
2016-09-01T03:58:45.646Z,0
2016-09-01T03:59:45.555Z,0
2016-09-01T04:00:45.563Z,0
2016-09-01T04:01:45.963Z,0
2016-09-01T04:02:44.877Z,0
2016-09-01T04:03:44.902Z,0
2016-09-01T04:04:46.295Z,0
2016-09-01T04:05:44.908Z,0
2016-09-01T04:06:47.018Z,0
2016-09-01T04:07:46.322Z,0
2016-09-01T04:08:46.430Z,0
2016-09-01T04:09:44.920Z,0
2016-09-01T04:10:44.976Z,0
2016-09-01T04:11:44.940Z,0
2016-09-01T04:12:48.530Z,0
2016-09-01T04:13:46.367Z,0
2016-09-01T04:14:45.670Z,0
2016-09-01T04:15:45.676Z,0
2016-09-01T04:16:47.091Z,0
2016-09-01T04:17:45.700Z,0
2016-09-01T04:18:45.699Z,0
2016-09-01T04:19:46.411Z,0
2016-09-01T04:20:45.716Z,0
2016-09-01T04:21:47.704Z,0
2016-09-01T04:22:47.142Z,0
2016-09-01T04:23:46.829Z,0
2016-09-01T04:24:46.449Z,0
2016-09-01T04:25:45.751Z,0
2016-09-01T04:26:45.754Z,0
2016-09-01T04:27:45.780Z,0
2016-09-01T04:28:45.777Z,0
2016-09-01T04:29:47.194Z,0
2016-09-01T04:30:45.788Z,0
2016-09-01T04:31:45.098Z,0
2016-09-01T04:32:44.493Z,0
2016-09-01T04:33:45.108Z,0
2016-09-01T04:34:46.526Z,0
2016-09-01T04:35:46.853Z,0
2016-09-01T04:36:45.883Z,0
2016-09-01T04:37:46.551Z,0
2016-09-01T04:38:45.196Z,0
2016-09-01T04:39:45.855Z,0
2016-09-01T04:40:47.280Z,0
2016-09-01T04:41:46.581Z,0
2016-09-01T04:42:45.880Z,0
2016-09-01T04:43:45.185Z,0
2016-09-01T04:44:45.953Z,0
2016-09-01T04:45:47.110Z,0
2016-09-01T04:46:45.211Z,0
2016-09-01T04:47:47.750Z,0
2016-09-01T04:48:46.640Z,0
2016-09-01T04:49:47.351Z,0
2016-09-01T04:50:45.942Z,0
2016-09-01T04:51:45.243Z,0
2016-09-01T04:52:45.304Z,0
2016-09-01T04:53:45.967Z,5
2016-09-01T04:54:47.383Z,5
2016-09-01T04:55:47.446Z,5
2016-09-01T04:56:46.488Z,5
2016-09-01T04:57:45.997Z,5
2016-09-01T04:58:45.349Z,5
2016-09-01T04:59:45.302Z,5
2016-09-01T05:00:46.776Z,5
2016-09-01T05:01:46.029Z,5
2016-09-01T05:02:45.326Z,5
2016-09-01T05:03:46.039Z,5
2016-09-01T05:04:45.343Z,5
2016-09-01T05:05:46.773Z,5
2016-09-01T05:06:45.402Z,10
2016-09-01T05:07:46.172Z,10
2016-09-01T05:08:44.662Z,10
2016-09-01T05:09:45.375Z,10
2016-09-01T05:10:46.100Z,15
2016-09-01T05:11:46.810Z,15
2016-09-01T05:12:46.823Z,15
2016-09-01T05:13:46.832Z,15
2016-09-01T05:14:46.133Z,20
2016-09-01T05:15:46.135Z,20
2016-09-01T05:16:46.144Z,25
2016-09-01T05:17:45.449Z,25
2016-09-01T05:18:46.576Z,25
2016-09-01T05:19:46.163Z,30
2016-09-01T05:20:47.882Z,30
2016-09-01T05:21:46.187Z,30
2016-09-01T05:22:46.359Z,35
2016-09-01T05:23:45.493Z,35
2016-09-01T05:24:46.201Z,40
2016-09-01T05:25:46.917Z,35
2016-09-01T05:26:46.220Z,35
2016-09-01T05:27:47.036Z,35
2016-09-01T05:28:46.237Z,35
2016-09-01T05:29:46.951Z,40
2016-09-01T05:30:47.664Z,40
2016-09-01T05:31:45.549Z,40
2016-09-01T05:32:46.978Z,40
2016-09-01T05:33:46.669Z,40
2016-09-01T05:34:46.279Z,45
2016-09-01T05:35:46.998Z,45
2016-09-01T05:36:46.311Z,45
2016-09-01T05:37:47.016Z,45
2016-09-01T05:38:47.019Z,50
2016-09-01T05:39:47.734Z,50
2016-09-01T05:40:46.578Z,55
2016-09-01T05:41:46.355Z,55
2016-09-01T05:43:14.117Z,55
2016-09-01T05:43:46.349Z,55
2016-09-01T05:44:47.170Z,60
2016-09-01T05:45:46.367Z,60
2016-09-01T05:46:46.385Z,60
2016-09-01T05:47:46.436Z,65
2016-09-01T05:48:47.119Z,65
2016-09-01T05:49:46.397Z,65
2016-09-01T05:50:47.836Z,65
2016-09-01T05:51:45.706Z,60
2016-09-01T05:52:47.885Z,60
2016-09-01T05:53:48.334Z,65
2016-09-01T05:54:47.852Z,65
2016-09-01T05:55:46.947Z,60
2016-09-01T05:56:47.210Z,60
2016-09-01T05:57:46.461Z,55
2016-09-01T05:58:45.810Z,55
2016-09-01T05:59:47.186Z,60
2016-09-01T06:00:47.190Z,65
2016-09-01T06:01:47.854Z,70
2016-09-01T06:02:46.497Z,75
2016-09-01T06:03:47.914Z,75
2016-09-01T06:04:47.781Z,75
2016-09-01T06:05:47.276Z,75
2016-09-01T06:06:46.269Z,75
2016-09-01T06:07:47.954Z,80
2016-09-01T06:08:47.599Z,85
2016-09-01T06:09:45.852Z,80
2016-09-01T06:10:46.570Z,80
2016-09-01T06:11:46.568Z,85
2016-09-01T06:12:46.574Z,85
2016-09-01T06:13:46.589Z,80
2016-09-01T06:14:47.349Z,70
2016-09-01T06:15:48.009Z,70
2016-09-01T06:16:46.606Z,75
2016-09-01T06:17:47.323Z,70
2016-09-01T06:18:45.206Z,80
2016-09-01T06:19:48.651Z,70
2016-09-01T06:20:45.935Z,75
2016-09-01T06:21:46.693Z,65
2016-09-01T06:22:47.374Z,70
2016-09-01T06:23:46.661Z,75
2016-09-01T06:24:47.373Z,75
2016-09-01T06:25:47.390Z,70
2016-09-01T06:26:47.712Z,85
2016-09-01T06:27:45.324Z,110
2016-09-01T06:28:46.859Z,125
2016-09-01T06:29:46.708Z,130
2016-09-01T06:30:48.225Z,135
2016-09-01T06:31:46.724Z,125
2016-09-01T06:32:47.438Z,105
2016-09-01T06:33:45.324Z,100
2016-09-01T06:34:46.047Z,125
2016-09-01T06:35:47.464Z,155
2016-09-01T06:36:46.775Z,235
2016-09-01T06:37:46.768Z,305
2016-09-01T06:38:46.073Z,325
2016-09-01T06:39:46.791Z,315
2016-09-01T06:40:46.799Z,300
2016-09-01T06:41:47.956Z,315
2016-09-01T06:42:47.536Z,320
2016-09-01T06:43:46.827Z,335
2016-09-01T06:44:46.844Z,270
2016-09-01T06:45:46.837Z,345
2016-09-01T06:46:46.923Z,380
2016-09-01T06:47:46.209Z,405
2016-09-01T06:48:46.930Z,455
2016-09-01T06:49:46.923Z,445
2016-09-01T06:50:48.773Z,415
2016-09-01T06:51:46.892Z,240
2016-09-01T06:52:48.164Z,225
2016-09-01T06:53:47.670Z,260
2016-09-01T06:54:46.965Z,345
2016-09-01T06:55:45.513Z,275
2016-09-01T06:56:47.686Z,165
2016-09-01T06:57:46.941Z,130
2016-09-01T06:58:46.964Z,120
2016-09-01T06:59:46.363Z,130
2016-09-01T07:00:48.438Z,150
2016-09-01T07:01:48.273Z,160
2016-09-01T07:02:48.397Z,175
2016-09-01T07:03:47.590Z,160
2016-09-01T07:04:47.723Z,155
2016-09-01T07:05:49.575Z,175
2016-09-01T07:06:47.721Z,165
2016-09-01T07:07:45.614Z,135
2016-09-01T07:08:47.735Z,115
2016-09-01T07:09:46.374Z,110
2016-09-01T07:10:46.337Z,95
2016-09-01T07:11:46.352Z,105
2016-09-01T07:12:48.490Z,90
2016-09-01T07:13:47.066Z,110
2016-09-01T07:14:47.073Z,120
2016-09-01T07:15:47.790Z,130
2016-09-01T07:16:49.005Z,140
2016-09-01T07:17:47.095Z,145
2016-09-01T07:18:47.820Z,160
2016-09-01T07:19:48.535Z,150
2016-09-01T07:20:47.825Z,145
2016-09-01T07:21:47.898Z,120
2016-09-01T07:22:48.555Z,135
2016-09-01T07:23:47.523Z,140
2016-09-01T07:24:47.911Z,120
2016-09-01T07:25:47.919Z,155
2016-09-01T07:26:47.220Z,105
2016-09-01T07:27:50.500Z,100
2016-09-01T07:28:47.190Z,110
2016-09-01T07:29:49.822Z,135
2016-09-01T07:30:47.912Z,150
2016-09-01T07:31:47.211Z,155
2016-09-01T07:32:47.233Z,155
2016-09-01T07:33:47.227Z,145
2016-09-01T07:34:47.239Z,130
2016-09-01T07:35:47.946Z,135
2016-09-01T07:36:47.250Z,125
2016-09-01T07:37:46.555Z,115
2016-09-01T07:38:47.788Z,110
2016-09-01T07:39:47.275Z,85
2016-09-01T07:40:47.287Z,70
2016-09-01T07:41:46.584Z,70
2016-09-01T07:42:47.430Z,80
2016-09-01T07:43:47.305Z,95
2016-09-01T07:44:46.607Z,100
2016-09-01T07:45:47.333Z,105
2016-09-01T07:46:47.330Z,110
2016-09-01T07:47:48.297Z,115
2016-09-01T07:48:48.112Z,110
2016-09-01T07:49:48.153Z,110
2016-09-01T07:50:46.700Z,105
2016-09-01T07:51:46.720Z,110
2016-09-01T07:52:47.487Z,110
2016-09-01T07:53:47.382Z,110
2016-09-01T07:54:47.502Z,110
2016-09-01T07:55:47.409Z,110
2016-09-01T07:56:46.750Z,110
2016-09-01T07:57:48.125Z,115
2016-09-01T07:58:48.222Z,115
2016-09-01T07:59:46.727Z,115
2016-09-01T08:00:48.565Z,115
2016-09-01T08:01:47.448Z,115
2016-09-01T08:02:49.431Z,120
2016-09-01T08:03:46.756Z,115
2016-09-01T08:04:48.188Z,110
2016-09-01T08:05:47.587Z,125
2016-09-01T08:07:17.360Z,120
2016-09-01T08:07:46.784Z,125
2016-09-01T08:08:48.215Z,130
2016-09-01T08:09:46.986Z,130
2016-09-01T08:10:47.513Z,125
2016-09-01T08:11:47.731Z,125
2016-09-01T08:12:49.004Z,130
2016-09-01T08:13:47.543Z,125
2016-09-01T08:14:46.139Z,120
2016-09-01T08:15:48.264Z,125
2016-09-01T08:16:46.860Z,140
2016-09-01T08:17:47.815Z,140
2016-09-01T08:18:46.867Z,135
2016-09-01T08:19:48.293Z,140
2016-09-01T08:20:47.593Z,135
2016-09-01T08:21:48.382Z,140
2016-09-01T08:22:47.948Z,135
2016-09-01T08:23:47.759Z,135
2016-09-01T08:24:49.251Z,130
2016-09-01T08:25:46.954Z,130
2016-09-01T08:26:48.322Z,135
2016-09-01T08:27:49.038Z,140
2016-09-01T08:28:46.933Z,145
2016-09-01T08:29:48.431Z,140
2016-09-01T08:30:47.648Z,140
2016-09-01T08:31:47.683Z,150
2016-09-01T08:32:47.807Z,160
2016-09-01T08:33:50.051Z,180
2016-09-01T08:34:47.871Z,175
2016-09-01T08:35:48.838Z,175
2016-09-01T08:36:46.269Z,180
2016-09-01T08:37:47.680Z,180
2016-09-01T08:38:48.403Z,175
2016-09-01T08:39:48.402Z,180
2016-09-01T08:40:47.701Z,180
2016-09-01T08:41:48.475Z,180
2016-09-01T08:42:58.866Z,180
2016-09-01T08:43:48.439Z,155
2016-09-01T08:44:48.440Z,155
2016-09-01T08:45:47.071Z,175
2016-09-01T08:46:49.900Z,180
2016-09-01T08:47:48.451Z,175
2016-09-01T08:48:47.764Z,180
2016-09-01T08:49:47.754Z,175
2016-09-01T08:50:47.054Z,170
2016-09-01T08:51:47.804Z,170
2016-09-01T08:52:48.533Z,160
2016-09-01T08:53:47.828Z,170
2016-09-01T08:54:47.835Z,170
2016-09-01T08:55:47.082Z,170
2016-09-01T08:56:47.799Z,165
2016-09-01T08:57:49.511Z,165
2016-09-01T08:58:47.869Z,160
2016-09-01T08:59:47.217Z,160
2016-09-01T09:00:47.894Z,160
2016-09-01T09:01:47.829Z,160
2016-09-01T09:02:47.838Z,155
2016-09-01T09:03:47.187Z,150
2016-09-01T09:04:48.551Z,150
2016-09-01T09:05:47.153Z,155
2016-09-01T09:06:48.576Z,150
2016-09-01T09:07:49.279Z,145
2016-09-01T09:08:48.971Z,145
2016-09-01T09:09:47.273Z,150
2016-09-01T09:10:47.884Z,145
2016-09-01T09:11:47.896Z,145
2016-09-01T09:12:48.701Z,140
2016-09-01T09:13:48.055Z,140
2016-09-01T09:14:47.910Z,140
2016-09-01T09:15:48.002Z,145
2016-09-01T09:16:48.631Z,145
2016-09-01T09:17:47.229Z,140
2016-09-01T09:18:46.516Z,140
2016-09-01T09:19:49.755Z,135
2016-09-01T09:20:49.360Z,135
2016-09-01T09:21:49.657Z,135
2016-09-01T09:22:49.505Z,135
2016-09-01T09:23:49.304Z,135
2016-09-01T09:24:47.974Z,135
2016-09-01T09:25:47.265Z,140
2016-09-01T09:26:47.276Z,140
2016-09-01T09:27:47.989Z,135
2016-09-01T09:28:48.698Z,135
2016-09-01T09:29:49.418Z,130
2016-09-01T09:30:48.512Z,135
2016-09-01T09:31:48.728Z,135
2016-09-01T09:32:49.222Z,135
2016-09-01T09:33:48.034Z,130
2016-09-01T09:34:48.538Z,135
2016-09-01T09:35:48.770Z,130
2016-09-01T09:36:48.048Z,130
2016-09-01T09:37:47.346Z,125
2016-09-01T09:38:48.071Z,130
2016-09-01T09:39:48.075Z,130
2016-09-01T09:40:47.365Z,125
2016-09-01T09:41:48.945Z,125
2016-09-01T09:42:46.691Z,130
2016-09-01T09:43:49.579Z,125
2016-09-01T09:44:47.396Z,105
2016-09-01T09:45:48.814Z,125
2016-09-01T09:46:49.610Z,125
2016-09-01T09:47:48.833Z,120
2016-09-01T09:48:48.840Z,125
2016-09-01T09:49:48.137Z,125
2016-09-01T09:50:48.909Z,125
2016-09-01T09:51:48.248Z,120
2016-09-01T09:52:48.925Z,120
2016-09-01T09:53:48.218Z,120
2016-09-01T09:54:50.027Z,125
2016-09-01T09:55:48.987Z,130
2016-09-01T09:56:48.584Z,130
2016-09-01T09:57:48.194Z,125
2016-09-01T09:58:49.863Z,125
2016-09-01T09:59:48.911Z,120
2016-09-01T10:00:48.209Z,120
2016-09-01T10:01:48.939Z,120
2016-09-01T10:02:48.230Z,120
2016-09-01T10:03:48.232Z,115
2016-09-01T10:04:49.009Z,100
2016-09-01T10:05:49.378Z,85
2016-09-01T10:06:48.251Z,115
2016-09-01T10:07:48.781Z,120
2016-09-01T10:08:48.281Z,120
2016-09-01T10:09:49.425Z,115
2016-09-01T10:10:48.400Z,115
2016-09-01T10:11:48.989Z,125
2016-09-01T10:12:48.332Z,100
2016-09-01T10:13:47.593Z,95
2016-09-01T10:14:49.059Z,120
2016-09-01T10:15:48.354Z,125
2016-09-01T10:16:49.995Z,125
2016-09-01T10:17:49.732Z,130
2016-09-01T10:18:48.782Z,130
2016-09-01T10:19:50.093Z,125
2016-09-01T10:20:48.339Z,125
2016-09-01T10:21:47.639Z,125
2016-09-01T10:22:49.061Z,130
2016-09-01T10:23:48.534Z,130
2016-09-01T10:24:47.662Z,130
2016-09-01T10:25:48.444Z,125
2016-09-01T10:26:49.091Z,110
2016-09-01T10:27:47.683Z,120
2016-09-01T10:28:49.806Z,95
2016-09-01T10:29:49.161Z,95
2016-09-01T10:30:47.701Z,95
2016-09-01T10:31:48.426Z,95
2016-09-01T10:32:47.735Z,95
2016-09-01T10:33:48.428Z,95
2016-09-01T10:34:48.486Z,95
2016-09-01T10:35:49.156Z,95
2016-09-01T10:36:47.735Z,120
2016-09-01T10:37:47.751Z,120
2016-09-01T10:38:48.516Z,90
2016-09-01T10:39:49.881Z,110
2016-09-01T10:40:48.868Z,95
2016-09-01T10:41:49.896Z,115
2016-09-01T10:42:57.592Z,115
2016-09-01T10:43:47.790Z,115
2016-09-01T10:44:47.796Z,95
2016-09-01T10:45:48.512Z,100
2016-09-01T10:46:48.564Z,120
2016-09-01T10:47:49.230Z,100
2016-09-01T10:48:48.588Z,95
2016-09-01T10:49:49.244Z,90
2016-09-01T10:50:47.837Z,80
2016-09-01T10:51:49.269Z,75
2016-09-01T10:52:48.602Z,65
2016-09-01T10:53:49.827Z,65
2016-09-01T10:54:48.620Z,65
2016-09-01T10:55:48.968Z,60
2016-09-01T10:56:48.689Z,65
2016-09-01T10:57:47.939Z,65
2016-09-01T10:58:47.904Z,65
2016-09-01T10:59:48.604Z,80
2016-09-01T11:00:49.373Z,80
2016-09-01T11:01:48.664Z,110
2016-09-01T11:02:48.827Z,125
2016-09-01T11:03:50.089Z,120
2016-09-01T11:04:49.863Z,105
2016-09-01T11:05:49.648Z,105
2016-09-01T11:06:49.049Z,105
2016-09-01T11:07:50.078Z,105
2016-09-01T11:08:49.591Z,100
2016-09-01T11:09:48.693Z,100
2016-09-01T11:10:48.760Z,130
2016-09-01T11:11:49.104Z,135
2016-09-01T11:12:48.742Z,135
2016-09-01T11:13:49.411Z,135
2016-09-01T11:14:47.995Z,135
2016-09-01T11:15:49.261Z,135
2016-09-01T11:16:48.733Z,130
2016-09-01T11:17:50.618Z,110
2016-09-01T11:18:49.442Z,110
2016-09-01T11:19:48.046Z,115
2016-09-01T11:20:48.046Z,105
2016-09-01T11:21:50.259Z,100
2016-09-01T11:22:48.801Z,100
2016-09-01T11:23:49.871Z,95
2016-09-01T11:24:48.149Z,95
2016-09-01T11:25:48.781Z,90
2016-09-01T11:26:50.089Z,95
2016-09-01T11:27:50.065Z,115
2016-09-01T11:28:50.677Z,120
2016-09-01T11:29:50.266Z,120
2016-09-01T11:30:49.522Z,120
2016-09-01T11:31:48.171Z,120
2016-09-01T11:32:49.639Z,100
2016-09-01T11:33:48.861Z,105
2016-09-01T11:34:48.188Z,115
2016-09-01T11:35:48.864Z,90
2016-09-01T11:36:48.858Z,90
2016-09-01T11:37:49.567Z,80
2016-09-01T11:38:49.629Z,80
2016-09-01T11:39:49.863Z,100
2016-09-01T11:40:48.886Z,80
2016-09-01T11:41:51.121Z,85
2016-09-01T11:43:14.571Z,85
2016-09-01T11:43:48.906Z,85
2016-09-01T11:44:49.615Z,80
2016-09-01T11:45:49.694Z,80
2016-09-01T11:46:48.984Z,80
2016-09-01T11:47:50.709Z,80
2016-09-01T11:48:49.176Z,85
2016-09-01T11:49:49.673Z,85
2016-09-01T11:50:50.430Z,90
2016-09-01T11:51:49.665Z,90
2016-09-01T11:52:48.874Z,100
2016-09-01T11:53:48.975Z,115
2016-09-01T11:54:49.028Z,130
2016-09-01T11:55:49.043Z,120
2016-09-01T11:56:49.109Z,115
2016-09-01T11:57:49.071Z,115
2016-09-01T11:58:49.061Z,110
2016-09-01T11:59:50.429Z,105
2016-09-01T12:00:49.724Z,100
2016-09-01T12:01:50.604Z,100
2016-09-01T12:02:48.323Z,100
2016-09-01T12:03:49.030Z,95
2016-09-01T12:04:50.458Z,95
2016-09-01T12:05:49.071Z,95
2016-09-01T12:06:50.518Z,95
2016-09-01T12:07:48.362Z,95
2016-09-01T12:08:49.155Z,95
2016-09-01T12:09:49.147Z,95
2016-09-01T12:10:49.802Z,110
2016-09-01T12:11:49.805Z,105
2016-09-01T12:13:09.420Z,100
2016-09-01T12:13:49.904Z,105
2016-09-01T12:14:48.738Z,105
2016-09-01T12:15:49.127Z,105
2016-09-01T12:16:49.125Z,115
2016-09-01T12:17:49.142Z,115
2016-09-01T12:18:49.841Z,110
2016-09-01T12:19:50.566Z,110
2016-09-01T12:20:49.868Z,110
2016-09-01T12:21:49.196Z,115
2016-09-01T12:22:49.169Z,115
2016-09-01T12:23:50.433Z,115
2016-09-01T12:24:48.473Z,115
2016-09-01T12:25:49.190Z,105
2016-09-01T12:26:49.244Z,110
2016-09-01T12:27:50.156Z,105
2016-09-01T12:28:49.210Z,115
2016-09-01T12:29:48.508Z,110
2016-09-01T12:30:48.640Z,95
2016-09-01T12:31:48.628Z,90
2016-09-01T12:32:50.715Z,90
2016-09-01T12:33:49.252Z,85
2016-09-01T12:34:49.249Z,80
2016-09-01T12:35:49.261Z,80
2016-09-01T12:36:51.333Z,80
2016-09-01T12:37:49.270Z,75
2016-09-01T12:38:49.767Z,75
2016-09-01T12:39:48.583Z,75
2016-09-01T12:40:50.771Z,75
2016-09-01T12:41:50.059Z,75
2016-09-01T12:42:56.947Z,70
2016-09-01T12:43:50.176Z,80
2016-09-01T12:44:49.374Z,80
2016-09-01T12:45:50.898Z,80
2016-09-01T12:46:50.081Z,85
2016-09-01T12:47:48.656Z,85
2016-09-01T12:48:50.082Z,85
2016-09-01T12:49:50.783Z,80
2016-09-01T12:50:48.663Z,80
2016-09-01T12:51:50.849Z,80
2016-09-01T12:52:48.758Z,80
2016-09-01T12:53:49.381Z,80
2016-09-01T12:54:49.399Z,80
2016-09-01T12:55:48.040Z,80
2016-09-01T12:56:49.858Z,80
2016-09-01T12:57:48.708Z,80
2016-09-01T12:58:51.236Z,80
2016-09-01T12:59:49.431Z,85
2016-09-01T13:00:52.494Z,85
2016-09-01T13:01:49.456Z,85
2016-09-01T13:02:50.159Z,85
2016-09-01T13:03:48.760Z,90
2016-09-01T13:04:48.765Z,95
2016-09-01T13:05:50.235Z,100
2016-09-01T13:06:50.274Z,100
2016-09-01T13:07:49.488Z,100
2016-09-01T13:08:48.079Z,90
2016-09-01T13:09:50.884Z,95
2016-09-01T13:10:50.215Z,85
2016-09-01T13:11:50.766Z,90
2016-09-01T13:13:01.202Z,90
2016-09-01T13:13:51.389Z,90
2016-09-01T13:14:48.121Z,90
2016-09-01T13:15:50.298Z,90
2016-09-01T13:16:48.851Z,75
2016-09-01T13:17:48.845Z,80
2016-09-01T13:18:50.324Z,75
2016-09-01T13:19:50.983Z,85
2016-09-01T13:20:51.837Z,75
2016-09-01T13:21:49.638Z,75
2016-09-01T13:22:49.775Z,80
2016-09-01T13:23:50.312Z,75
2016-09-01T13:24:51.338Z,80
2016-09-01T13:25:49.657Z,75
2016-09-01T13:26:49.631Z,75
2016-09-01T13:27:49.007Z,85
2016-09-01T13:28:50.391Z,85
2016-09-01T13:29:48.935Z,85
2016-09-01T13:30:51.104Z,90
2016-09-01T13:31:49.291Z,90
2016-09-01T13:32:49.664Z,80
2016-09-01T13:33:49.012Z,80
2016-09-01T13:34:48.260Z,90
2016-09-01T13:35:49.656Z,95
2016-09-01T13:36:50.412Z,95
2016-09-01T13:37:49.700Z,85
2016-09-01T13:38:51.215Z,90
2016-09-01T13:39:51.237Z,80
2016-09-01T13:40:51.563Z,80
2016-09-01T13:41:49.909Z,80
2016-09-01T13:42:51.680Z,85
2016-09-01T13:43:50.471Z,85
2016-09-01T13:44:49.153Z,85
2016-09-01T13:45:50.462Z,85
2016-09-01T13:46:50.510Z,85
2016-09-01T13:47:49.072Z,80
2016-09-01T13:48:48.367Z,85
2016-09-01T13:49:51.687Z,85
2016-09-01T13:50:50.031Z,85
2016-09-01T13:51:52.162Z,75
2016-09-01T13:52:50.603Z,80
2016-09-01T13:53:49.929Z,75
2016-09-01T13:54:50.687Z,80
2016-09-01T13:55:49.124Z,85
2016-09-01T13:56:50.148Z,85
2016-09-01T13:57:49.832Z,90
2016-09-01T13:58:51.406Z,90
2016-09-01T13:59:50.720Z,85
2016-09-01T14:00:51.043Z,80
2016-09-01T14:01:49.888Z,75
2016-09-01T14:02:50.580Z,70
2016-09-01T14:03:49.908Z,75
2016-09-01T14:04:50.715Z,75
2016-09-01T14:05:49.392Z,70
2016-09-01T14:06:49.899Z,70
2016-09-01T14:07:51.809Z,70
2016-09-01T14:08:49.265Z,65
2016-09-01T14:09:52.307Z,65
2016-09-01T14:10:49.264Z,65
2016-09-01T14:11:49.513Z,65
2016-09-01T14:12:50.779Z,65
2016-09-01T14:13:50.659Z,65
2016-09-01T14:14:51.638Z,65
2016-09-01T14:15:50.714Z,65